Lackland Air Force Base (Kelly Field Annex) Airport
KSKF : rendu visible

Aérodrome :











RETROUVEZ-NOUS SUR...

 
LOGIN :

S'inscrire | Disclaimer

   EN    FR    IT 

 









Légende :    VFR   VFR Marginal   IFR   IFR Intensif   IFR Très Intensif
Visi : 
Plafond : 
>= 8 km
>= 3000ft
5 à 8 km
1000 à 3000 ft
1500m à 5 km
500 à 1000 ft
800 à 1500m
200 à 500 ft
< 800m
< 200 ft
Symboles :   Orages  Brouillard  Fortes neiges  Fortes précipitations  Vent > 20 kt






- Altitude de l'aérodrome : 691 ft


KSKF - Lackland Air Force Base (Kelly Field Annex)

DERNIER METAR :
  • 242156Z 13009G17KT 10SM SCT050 SCT250 34/20 A2968 RMK AO2A SLP042 T03390195 $

METARs EXPIRÉS :
  • 242139Z 15013G20KT 10SM FEW060 35/20 A2968 RMK AO2A WSHFT 36 SLP042 $
  • 242056Z 15013G18KT 10SM FEW055 34/20 A2971 RMK AO2A SLP052 T03410201 57034 $
  • 241958Z 14010G16KT 10SM SCT050 SCT200 33/20 A2974 RMK AO2A SLP063 T03320200 $

TAF TAF KSKF
Valide du 24 à 18h jusqu'au 26 à 00h UTC


241800Z 2418/2524 15010G15KT 9999 BKN040 BKN180 QNH2972INS
BECMG 2420/2421 14014G20KT 9999 VCSH BKN050 BKN150 QNH2967INS
BECMG 2423/2424 13016G25KT 9000 -SHRA VCTS FEW020 OVC040CB QNH2968INS
TEMPO 2503/2507 VRB30G40KT 2400 +TSRA OVC020CB
BECMG 2507/2508 12009KT 9999 NSW BKN015 OVC025 QNH2975INS
BECMG 2514/2515 13011KT 9999 VCSH SCT020 BKN030 QNH2980INS
BECMG 2518/2519 15012G18KT 9999 VCTS BKN050CB BKN200 QNH2976INS TX34/2421Z TN21/2511Z
FIR KZHU / Amérique du Nord



MET'MAP, la Météo Aéronautique d'un coup d'oeil ! - Copyright ORBIFLY Décembre 2007 - Disclaimer

ORBIFLY MET'MAP TEAM :

Programmation & Développement : Alexandra Zaïnal
Sur une idée originale de : Baudouin d'Aumeries
Assistance à la programmation : Marc-Olivier Méhu
Soutien technique & logistique : Manuel Goepfert

Contact : metmap@orbifly.com




SOURCES & CREDITS :

   NOAA       Earth
Advisory